sensor_id;sensor_type;location;lat;lon;timestamp;temperature;humidity
43842;DHT22;29495;49.970;20.842;2023-04-15T03:41:21;9.20;99.90
43842;DHT22;29495;49.970;20.842;2023-04-15T03:44:09;9.20;99.90
43842;DHT22;29495;49.970;20.842;2023-04-15T11:50:14;18.00;63.00
43842;DHT22;29495;49.970;20.842;2023-04-15T11:52:58;17.70;58.30
43842;DHT22;29495;49.970;20.842;2023-04-15T11:55:32;18.00;61.60
43842;DHT22;29495;49.970;20.842;2023-04-15T12:00:48;17.80;59.10
43842;DHT22;29495;49.970;20.842;2023-04-15T12:03:24;17.70;62.10
43842;DHT22;29495;49.970;20.842;2023-04-15T12:06:02;17.30;62.90
43842;DHT22;29495;49.970;20.842;2023-04-15T12:11:38;17.20;65.40
43842;DHT22;29495;49.970;20.842;2023-04-15T12:14:08;17.30;68.20
43842;DHT22;29495;49.970;20.842;2023-04-15T12:16:35;17.00;66.20
43842;DHT22;29495;49.970;20.842;2023-04-15T12:19:06;16.80;67.90
43842;DHT22;29495;49.970;20.842;2023-04-15T12:21:34;16.80;67.80
43842;DHT22;29495;49.970;20.842;2023-04-15T12:24:04;16.60;70.20
43842;DHT22;29495;49.970;20.842;2023-04-15T12:26:51;16.70;68.60
43842;DHT22;29495;49.970;20.842;2023-04-15T12:29:18;16.40;70.90
43842;DHT22;29495;49.970;20.842;2023-04-15T12:31:50;16.40;71.10
43842;DHT22;29495;49.970;20.842;2023-04-15T12:34:26;16.50;74.20
43842;DHT22;29495;49.970;20.842;2023-04-15T12:36:59;16.40;72.00
43842;DHT22;29495;49.970;20.842;2023-04-15T12:39:27;16.60;72.50
43842;DHT22;29495;49.970;20.842;2023-04-15T12:41:59;16.80;73.10
43842;DHT22;29495;49.970;20.842;2023-04-15T12:44:27;16.60;71.60
43842;DHT22;29495;49.970;20.842;2023-04-15T12:46:58;16.80;74.30
43842;DHT22;29495;49.970;20.842;2023-04-15T12:49:47;16.60;70.70
43842;DHT22;29495;49.970;20.842;2023-04-15T12:52:14;16.50;70.10
43842;DHT22;29495;49.970;20.842;2023-04-15T12:54:41;16.60;71.40
43842;DHT22;29495;49.970;20.842;2023-04-15T12:57:11;16.50;71.30
43842;DHT22;29495;49.970;20.842;2023-04-15T12:59:39;17.00;74.00
43842;DHT22;29495;49.970;20.842;2023-04-15T13:02:15;16.90;69.20
43842;DHT22;29495;49.970;20.842;2023-04-15T13:04:53;16.80;68.30
43842;DHT22;29495;49.970;20.842;2023-04-15T13:07:35;16.70;70.30
43842;DHT22;29495;49.970;20.842;2023-04-15T13:10:06;16.90;72.20
43842;DHT22;29495;49.970;20.842;2023-04-15T13:12:58;16.70;71.60
43842;DHT22;29495;49.970;20.842;2023-04-15T13:15:35;16.60;70.40
43842;DHT22;29495;49.970;20.842;2023-04-15T13:18:12;16.40;70.90
43842;DHT22;29495;49.970;20.842;2023-04-15T13:20:51;16.60;68.80
43842;DHT22;29495;49.970;20.842;2023-04-15T13:23:19;16.50;67.70
43842;DHT22;29495;49.970;20.842;2023-04-15T13:25:50;16.60;67.10
43842;DHT22;29495;49.970;20.842;2023-04-15T13:28:37;16.70;65.40
43842;DHT22;29495;49.970;20.842;2023-04-15T13:31:15;16.70;65.40
43842;DHT22;29495;49.970;20.842;2023-04-15T13:33:48;16.40;63.80
43842;DHT22;29495;49.970;20.842;2023-04-15T13:36:23;16.40;63.90
43842;DHT22;29495;49.970;20.842;2023-04-15T13:39:01;16.60;66.60
43842;DHT22;29495;49.970;20.842;2023-04-15T13:41:50;16.50;67.10
43842;DHT22;29495;49.970;20.842;2023-04-15T13:44:15;16.70;67.50
43842;DHT22;29495;49.970;20.842;2023-04-15T13:46:41;16.60;66.00
43842;DHT22;29495;49.970;20.842;2023-04-15T13:49:07;16.30;66.40
43842;DHT22;29495;49.970;20.842;2023-04-15T13:51:33;16.20;66.20
43842;DHT22;29495;49.970;20.842;2023-04-15T13:54:01;16.50;69.30
43842;DHT22;29495;49.970;20.842;2023-04-15T13:56:27;16.40;63.60
43842;DHT22;29495;49.970;20.842;2023-04-15T13:58:53;16.60;68.60
43842;DHT22;29495;49.970;20.842;2023-04-15T14:01:23;16.70;65.50
43842;DHT22;29495;49.970;20.842;2023-04-15T14:03:49;16.70;65.40
43842;DHT22;29495;49.970;20.842;2023-04-15T14:06:15;16.80;65.30
43842;DHT22;29495;49.970;20.842;2023-04-15T14:08:48;16.60;63.00
43842;DHT22;29495;49.970;20.842;2023-04-15T14:11:22;16.90;67.90
43842;DHT22;29495;49.970;20.842;2023-04-15T14:14:29;16.60;65.10
43842;DHT22;29495;49.970;20.842;2023-04-15T14:17:31;16.90;64.30
43842;DHT22;29495;49.970;20.842;2023-04-15T14:23:31;16.80;65.80
43842;DHT22;29495;49.970;20.842;2023-04-15T14:26:15;17.00;68.30
43842;DHT22;29495;49.970;20.842;2023-04-15T14:29:01;16.80;66.00
43842;DHT22;29495;49.970;20.842;2023-04-15T14:31:27;17.00;66.90
43842;DHT22;29495;49.970;20.842;2023-04-15T14:33:56;16.80;64.00
43842;DHT22;29495;49.970;20.842;2023-04-15T14:36:27;16.60;62.60
43842;DHT22;29495;49.970;20.842;2023-04-15T14:42:34;16.50;63.80
43842;DHT22;29495;49.970;20.842;2023-04-15T14:45:01;16.50;62.80
43842;DHT22;29495;49.970;20.842;2023-04-15T14:47:27;16.40;62.20
43842;DHT22;29495;49.970;20.842;2023-04-15T14:49:52;16.50;60.00
43842;DHT22;29495;49.970;20.842;2023-04-15T14:52:18;16.70;62.00
43842;DHT22;29495;49.970;20.842;2023-04-15T14:54:44;16.50;59.30
43842;DHT22;29495;49.970;20.842;2023-04-15T14:57:10;16.30;58.00
43842;DHT22;29495;49.970;20.842;2023-04-15T14:59:36;16.30;59.80
43842;DHT22;29495;49.970;20.842;2023-04-15T15:02:01;16.10;59.60
43842;DHT22;29495;49.970;20.842;2023-04-15T15:04:28;16.20;62.90
43842;DHT22;29495;49.970;20.842;2023-04-15T15:06:54;15.90;62.50
43842;DHT22;29495;49.970;20.842;2023-04-15T15:09:20;16.00;64.50
43842;DHT22;29495;49.970;20.842;2023-04-15T15:11:48;15.80;64.40
43842;DHT22;29495;49.970;20.842;2023-04-15T15:14:14;15.80;63.70
43842;DHT22;29495;49.970;20.842;2023-04-15T15:16:40;16.10;63.90
43842;DHT22;29495;49.970;20.842;2023-04-15T15:19:06;16.30;64.90
43842;DHT22;29495;49.970;20.842;2023-04-15T15:21:32;16.50;65.60
43842;DHT22;29495;49.970;20.842;2023-04-15T15:23:58;16.40;63.00
43842;DHT22;29495;49.970;20.842;2023-04-15T15:26:24;16.50;66.90
43842;DHT22;29495;49.970;20.842;2023-04-15T15:28:52;16.30;66.90
43842;DHT22;29495;49.970;20.842;2023-04-15T15:31:18;16.10;66.30
43842;DHT22;29495;49.970;20.842;2023-04-15T15:33:44;16.30;67.00
43842;DHT22;29495;49.970;20.842;2023-04-15T15:36:10;16.20;66.90
43842;DHT22;29495;49.970;20.842;2023-04-15T15:38:36;16.40;66.30
43842;DHT22;29495;49.970;20.842;2023-04-15T15:41:01;16.20;65.00
43842;DHT22;29495;49.970;20.842;2023-04-15T15:43:27;16.40;65.00
43842;DHT22;29495;49.970;20.842;2023-04-15T15:45:53;16.60;64.80
43842;DHT22;29495;49.970;20.842;2023-04-15T15:48:21;16.60;65.10
43842;DHT22;29495;49.970;20.842;2023-04-15T15:50:47;16.50;66.20
43842;DHT22;29495;49.970;20.842;2023-04-15T15:53:13;16.60;66.50
43842;DHT22;29495;49.970;20.842;2023-04-15T15:55:48;15.90;66.90
43842;DHT22;29495;49.970;20.842;2023-04-15T15:58:14;15.70;68.00
43842;DHT22;29495;49.970;20.842;2023-04-15T16:00:40;15.50;71.60
43842;DHT22;29495;49.970;20.842;2023-04-15T16:03:09;15.40;70.70
43842;DHT22;29495;49.970;20.842;2023-04-15T16:05:35;15.10;71.90
43842;DHT22;29495;49.970;20.842;2023-04-15T16:08:00;15.00;71.00
43842;DHT22;29495;49.970;20.842;2023-04-15T16:10:26;14.90;71.40
43842;DHT22;29495;49.970;20.842;2023-04-15T16:12:52;14.80;70.90
43842;DHT22;29495;49.970;20.842;2023-04-15T16:15:18;14.70;71.10
43842;DHT22;29495;49.970;20.842;2023-04-15T16:17:44;14.80;71.70
43842;DHT22;29495;49.970;20.842;2023-04-15T16:20:10;14.80;72.40
43842;DHT22;29495;49.970;20.842;2023-04-15T16:22:38;14.50;72.40
43842;DHT22;29495;49.970;20.842;2023-04-15T16:25:04;14.50;74.70
43842;DHT22;29495;49.970;20.842;2023-04-15T16:27:30;14.30;75.60
43842;DHT22;29495;49.970;20.842;2023-04-15T16:29:56;14.40;76.20
43842;DHT22;29495;49.970;20.842;2023-04-15T16:32:22;14.30;76.00
43842;DHT22;29495;49.970;20.842;2023-04-15T16:34:47;14.10;77.00
43842;DHT22;29495;49.970;20.842;2023-04-15T16:37:13;13.90;77.80
43842;DHT22;29495;49.970;20.842;2023-04-15T16:39:39;13.80;79.40
43842;DHT22;29495;49.970;20.842;2023-04-15T16:42:05;13.80;80.80
43842;DHT22;29495;49.970;20.842;2023-04-15T16:44:31;13.80;81.00
43842;DHT22;29495;49.970;20.842;2023-04-15T16:46:58;13.50;82.50
43842;DHT22;29495;49.970;20.842;2023-04-15T16:49:24;13.50;82.20
43842;DHT22;29495;49.970;20.842;2023-04-15T16:51:49;13.40;85.00
43842;DHT22;29495;49.970;20.842;2023-04-15T16:54:16;13.30;85.40
43842;DHT22;29495;49.970;20.842;2023-04-15T16:56:42;13.10;85.20
43842;DHT22;29495;49.970;20.842;2023-04-15T16:59:08;13.00;86.50
43842;DHT22;29495;49.970;20.842;2023-04-15T17:01:33;12.90;86.50
43842;DHT22;29495;49.970;20.842;2023-04-15T17:03:59;12.80;88.90
43842;DHT22;29495;49.970;20.842;2023-04-15T17:06:25;12.60;89.80
43842;DHT22;29495;49.970;20.842;2023-04-15T17:08:51;12.50;88.80
43842;DHT22;29495;49.970;20.842;2023-04-15T17:11:17;12.40;90.10
43842;DHT22;29495;49.970;20.842;2023-04-15T17:13:43;12.30;88.50
43842;DHT22;29495;49.970;20.842;2023-04-15T17:16:09;12.20;89.60
43842;DHT22;29495;49.970;20.842;2023-04-15T17:18:39;12.10;90.10
43842;DHT22;29495;49.970;20.842;2023-04-15T17:21:13;12.00;89.40
43842;DHT22;29495;49.970;20.842;2023-04-15T17:23:43;11.90;86.20
43842;DHT22;29495;49.970;20.842;2023-04-15T17:26:09;11.80;87.40
43842;DHT22;29495;49.970;20.842;2023-04-15T17:28:35;11.60;86.80
43842;DHT22;29495;49.970;20.842;2023-04-15T17:31:04;11.50;87.10
43842;DHT22;29495;49.970;20.842;2023-04-15T17:33:51;11.40;86.10
43842;DHT22;29495;49.970;20.842;2023-04-15T17:36:37;11.30;87.30
43842;DHT22;29495;49.970;20.842;2023-04-15T17:39:03;11.30;87.30
43842;DHT22;29495;49.970;20.842;2023-04-15T17:41:48;11.30;87.60
43842;DHT22;29495;49.970;20.842;2023-04-15T17:44:34;11.20;87.90
43842;DHT22;29495;49.970;20.842;2023-04-15T17:47:20;11.10;88.80
43842;DHT22;29495;49.970;20.842;2023-04-15T17:50:06;11.10;90.00
43842;DHT22;29495;49.970;20.842;2023-04-15T17:52:52;11.10;89.30
43842;DHT22;29495;49.970;20.842;2023-04-15T17:55:38;11.10;90.50
43842;DHT22;29495;49.970;20.842;2023-04-15T17:58:24;10.80;91.50
43842;DHT22;29495;49.970;20.842;2023-04-15T18:04:27;10.80;92.10
43842;DHT22;29495;49.970;20.842;2023-04-15T18:07:16;10.80;93.50
43842;DHT22;29495;49.970;20.842;2023-04-15T18:34:04;10.50;97.50
43842;DHT22;29495;49.970;20.842;2023-04-15T18:36:48;10.50;98.30
43842;DHT22;29495;49.970;20.842;2023-04-15T18:39:37;10.50;98.50
43842;DHT22;29495;49.970;20.842;2023-04-15T18:42:37;10.50;98.80
43842;DHT22;29495;49.970;20.842;2023-04-15T18:45:24;10.30;99.90
43842;DHT22;29495;49.970;20.842;2023-04-15T18:47:49;10.10;99.90
43842;DHT22;29495;49.970;20.842;2023-04-15T18:50:15;10.00;99.90
43842;DHT22;29495;49.970;20.842;2023-04-15T18:52:41;9.90;99.90
43842;DHT22;29495;49.970;20.842;2023-04-15T18:55:07;9.80;99.90
43842;DHT22;29495;49.970;20.842;2023-04-15T18:57:33;9.80;99.90
43842;DHT22;29495;49.970;20.842;2023-04-15T18:59:59;9.70;99.90
43842;DHT22;29495;49.970;20.842;2023-04-15T19:02:25;9.70;99.90
43842;DHT22;29495;49.970;20.842;2023-04-15T19:04:50;9.70;99.90
43842;DHT22;29495;49.970;20.842;2023-04-15T19:07:16;9.70;99.90
43842;DHT22;29495;49.970;20.842;2023-04-15T19:09:42;9.60;99.90
43842;DHT22;29495;49.970;20.842;2023-04-15T19:12:08;9.60;99.90
43842;DHT22;29495;49.970;20.842;2023-04-15T19:14:34;9.60;99.90
43842;DHT22;29495;49.970;20.842;2023-04-15T19:16:59;9.60;99.90
43842;DHT22;29495;49.970;20.842;2023-04-15T19:19:25;9.50;99.90
43842;DHT22;29495;49.970;20.842;2023-04-15T19:21:51;9.50;99.90
43842;DHT22;29495;49.970;20.842;2023-04-15T19:24:17;9.60;99.90
43842;DHT22;29495;49.970;20.842;2023-04-15T19:26:46;9.60;99.90
43842;DHT22;29495;49.970;20.842;2023-04-15T19:29:12;9.60;99.90
43842;DHT22;29495;49.970;20.842;2023-04-15T19:31:37;9.60;99.90
43842;DHT22;29495;49.970;20.842;2023-04-15T19:34:03;9.70;99.90
43842;DHT22;29495;49.970;20.842;2023-04-15T19:36:30;9.70;99.90
43842;DHT22;29495;49.970;20.842;2023-04-15T19:38:56;9.70;99.90
43842;DHT22;29495;49.970;20.842;2023-04-15T19:41:23;9.60;99.90
43842;DHT22;29495;49.970;20.842;2023-04-15T19:43:49;9.60;99.90
43842;DHT22;29495;49.970;20.842;2023-04-15T19:46:15;9.60;99.90
43842;DHT22;29495;49.970;20.842;2023-04-15T19:48:40;9.50;99.90
43842;DHT22;29495;49.970;20.842;2023-04-15T19:51:06;9.60;99.90
43842;DHT22;29495;49.970;20.842;2023-04-15T19:53:32;9.60;99.90
43842;DHT22;29495;49.970;20.842;2023-04-15T19:55:58;9.60;99.90
43842;DHT22;29495;49.970;20.842;2023-04-15T19:58:24;9.60;99.90
43842;DHT22;29495;49.970;20.842;2023-04-15T20:00:50;9.50;99.90
43842;DHT22;29495;49.970;20.842;2023-04-15T20:03:16;9.50;99.90
43842;DHT22;29495;49.970;20.842;2023-04-15T20:05:43;9.40;99.90
43842;DHT22;29495;49.970;20.842;2023-04-15T20:08:08;9.40;99.90
43842;DHT22;29495;49.970;20.842;2023-04-15T20:10:35;9.30;99.90
43842;DHT22;29495;49.970;20.842;2023-04-15T20:13:01;9.30;99.90
43842;DHT22;29495;49.970;20.842;2023-04-15T20:15:26;9.20;99.90
43842;DHT22;29495;49.970;20.842;2023-04-15T20:17:52;9.30;99.90
43842;DHT22;29495;49.970;20.842;2023-04-15T20:20:18;9.30;99.90
43842;DHT22;29495;49.970;20.842;2023-04-15T20:22:44;9.30;99.90
43842;DHT22;29495;49.970;20.842;2023-04-15T20:25:10;9.40;99.90
43842;DHT22;29495;49.970;20.842;2023-04-15T20:27:36;9.40;99.90
43842;DHT22;29495;49.970;20.842;2023-04-15T20:30:02;9.40;99.90
43842;DHT22;29495;49.970;20.842;2023-04-15T20:32:29;9.40;99.90
43842;DHT22;29495;49.970;20.842;2023-04-15T20:35:02;9.40;99.90
43842;DHT22;29495;49.970;20.842;2023-04-15T20:37:29;9.40;99.90
43842;DHT22;29495;49.970;20.842;2023-04-15T20:39:55;9.40;99.90
43842;DHT22;29495;49.970;20.842;2023-04-15T20:42:21;9.40;99.90
43842;DHT22;29495;49.970;20.842;2023-04-15T20:44:46;9.40;99.90
43842;DHT22;29495;49.970;20.842;2023-04-15T20:47:12;9.40;99.90
43842;DHT22;29495;49.970;20.842;2023-04-15T20:49:38;9.30;99.90
43842;DHT22;29495;49.970;20.842;2023-04-15T20:52:05;9.20;99.90
43842;DHT22;29495;49.970;20.842;2023-04-15T20:54:31;9.20;99.90
43842;DHT22;29495;49.970;20.842;2023-04-15T20:56:56;9.10;99.90
43842;DHT22;29495;49.970;20.842;2023-04-15T20:59:23;9.10;99.90
43842;DHT22;29495;49.970;20.842;2023-04-15T21:01:48;9.10;99.90
43842;DHT22;29495;49.970;20.842;2023-04-15T21:04:14;9.10;99.90
43842;DHT22;29495;49.970;20.842;2023-04-15T21:06:40;9.10;99.90
43842;DHT22;29495;49.970;20.842;2023-04-15T21:09:06;9.10;99.90
43842;DHT22;29495;49.970;20.842;2023-04-15T21:11:32;9.10;99.90
43842;DHT22;29495;49.970;20.842;2023-04-15T21:20:41;9.00;99.90
43842;DHT22;29495;49.970;20.842;2023-04-15T21:23:08;8.90;99.90
43842;DHT22;29495;49.970;20.842;2023-04-15T21:25:33;8.90;99.90
43842;DHT22;29495;49.970;20.842;2023-04-15T21:27:59;8.80;99.90
43842;DHT22;29495;49.970;20.842;2023-04-15T21:30:25;8.60;99.90
43842;DHT22;29495;49.970;20.842;2023-04-15T21:32:51;8.50;99.90
43842;DHT22;29495;49.970;20.842;2023-04-15T21:35:17;8.30;99.90
43842;DHT22;29495;49.970;20.842;2023-04-15T21:37:43;8.10;99.90
43842;DHT22;29495;49.970;20.842;2023-04-15T21:40:09;7.90;99.90
43842;DHT22;29495;49.970;20.842;2023-04-15T21:42:42;8.10;99.90
43842;DHT22;29495;49.970;20.842;2023-04-15T21:45:08;8.00;99.90
43842;DHT22;29495;49.970;20.842;2023-04-15T21:47:33;8.00;99.90
43842;DHT22;29495;49.970;20.842;2023-04-15T21:49:59;7.80;99.90
43842;DHT22;29495;49.970;20.842;2023-04-15T21:52:25;7.70;99.90
43842;DHT22;29495;49.970;20.842;2023-04-15T21:58:01;7.60;99.90
43842;DHT22;29495;49.970;20.842;2023-04-15T22:00:26;7.50;99.90
43842;DHT22;29495;49.970;20.842;2023-04-15T22:02:52;7.60;99.90
43842;DHT22;29495;49.970;20.842;2023-04-15T22:05:18;7.60;99.90
43842;DHT22;29495;49.970;20.842;2023-04-15T22:07:44;7.50;99.90
43842;DHT22;29495;49.970;20.842;2023-04-15T22:10:18;7.50;99.90
43842;DHT22;29495;49.970;20.842;2023-04-15T22:12:45;7.40;99.90
43842;DHT22;29495;49.970;20.842;2023-04-15T22:15:11;7.40;99.90
43842;DHT22;29495;49.970;20.842;2023-04-15T22:17:37;7.30;99.90
43842;DHT22;29495;49.970;20.842;2023-04-15T22:20:03;7.30;99.90
43842;DHT22;29495;49.970;20.842;2023-04-15T22:22:47;7.50;99.90
43842;DHT22;29495;49.970;20.842;2023-04-15T22:25:16;7.60;99.90
43842;DHT22;29495;49.970;20.842;2023-04-15T22:27:52;7.70;99.90
43842;DHT22;29495;49.970;20.842;2023-04-15T22:30:23;7.70;99.90
43842;DHT22;29495;49.970;20.842;2023-04-15T22:32:49;7.80;99.90
43842;DHT22;29495;49.970;20.842;2023-04-15T22:35:18;7.80;99.90
43842;DHT22;29495;49.970;20.842;2023-04-15T22:37:44;7.70;99.90
43842;DHT22;29495;49.970;20.842;2023-04-15T22:40:10;7.70;99.90
43842;DHT22;29495;49.970;20.842;2023-04-15T22:42:36;7.70;99.90
43842;DHT22;29495;49.970;20.842;2023-04-15T22:45:02;7.70;99.90
43842;DHT22;29495;49.970;20.842;2023-04-15T22:47:28;7.70;99.90
43842;DHT22;29495;49.970;20.842;2023-04-15T22:49:54;7.70;99.90
43842;DHT22;29495;49.970;20.842;2023-04-15T22:52:20;7.60;99.90
43842;DHT22;29495;49.970;20.842;2023-04-15T22:54:46;7.70;99.90
43842;DHT22;29495;49.970;20.842;2023-04-15T22:57:12;7.70;99.90
43842;DHT22;29495;49.970;20.842;2023-04-15T22:59:38;7.70;99.90
43842;DHT22;29495;49.970;20.842;2023-04-15T23:02:04;7.60;99.90
43842;DHT22;29495;49.970;20.842;2023-04-15T23:04:30;7.70;99.90
43842;DHT22;29495;49.970;20.842;2023-04-15T23:07:11;7.70;99.90
43842;DHT22;29495;49.970;20.842;2023-04-15T23:09:38;7.60;99.90
43842;DHT22;29495;49.970;20.842;2023-04-15T23:12:09;7.70;99.90
43842;DHT22;29495;49.970;20.842;2023-04-15T23:15:04;7.70;99.90
43842;DHT22;29495;49.970;20.842;2023-04-15T23:17:33;7.80;99.90
43842;DHT22;29495;49.970;20.842;2023-04-15T23:19:59;7.70;99.90
43842;DHT22;29495;49.970;20.842;2023-04-15T23:22:30;7.60;99.90
43842;DHT22;29495;49.970;20.842;2023-04-15T23:25:24;7.50;99.90
43842;DHT22;29495;49.970;20.842;2023-04-15T23:28:42;7.50;99.90
43842;DHT22;29495;49.970;20.842;2023-04-15T23:31:09;7.50;99.90
43842;DHT22;29495;49.970;20.842;2023-04-15T23:33:45;7.50;99.90
43842;DHT22;29495;49.970;20.842;2023-04-15T23:36:11;7.50;99.90
43842;DHT22;29495;49.970;20.842;2023-04-15T23:38:37;7.40;99.90
43842;DHT22;29495;49.970;20.842;2023-04-15T23:41:03;7.40;99.90
43842;DHT22;29495;49.970;20.842;2023-04-15T23:43:28;7.30;99.90
43842;DHT22;29495;49.970;20.842;2023-04-15T23:45:54;7.30;99.90
43842;DHT22;29495;49.970;20.842;2023-04-15T23:48:20;7.30;99.90
43842;DHT22;29495;49.970;20.842;2023-04-15T23:50:48;7.20;99.90
43842;DHT22;29495;49.970;20.842;2023-04-15T23:53:14;7.30;99.90
43842;DHT22;29495;49.970;20.842;2023-04-15T23:55:40;7.30;99.90
43842;DHT22;29495;49.970;20.842;2023-04-15T23:58:05;7.40;99.90
